Time;durP1;ratioP1;P1;durP2;ratioP2;P2;SDS_P1;SDS_P2;PMS_P1;PMS_P2;Temp;Humidity;BMP_temperature;BMP_pressure;BME280_temperature;BME280_humidity;BME280_pressure;Samples;Min_cycle;Max_cycle;Signal;HPM_P1;HPM_P2
2024/03/01 00:03:09;;;;;;;27.77;12.25;;;;;;;5.02;65.61;99418.53;10300182;28;20050;-59
2024/03/01 00:08:11;;;;;;;31.05;12.43;;;;;;;4.93;65.46;99425.66;10303331;28;20050;-60
2024/03/01 00:13:12;;;;;;;35.85;13.73;;;;;;;4.84;66.09;99423.94;10299756;28;20078;-60
2024/03/01 00:18:14;;;;;;;29.90;13.38;;;;;;;4.80;66.11;99422.59;10283776;28;20054;-60
2024/03/01 00:23:15;;;;;;;33.28;13.02;;;;;;;4.78;65.61;99401.50;10303754;28;20050;-59
2024/03/01 00:28:16;;;;;;;35.47;13.70;;;;;;;4.68;66.18;99406.94;10302570;28;20057;-59
2024/03/01 00:33:18;;;;;;;35.53;14.55;;;;;;;4.69;66.02;99397.13;10302501;28;20047;-59
2024/03/01 00:38:20;;;;;;;34.50;11.85;;;;;;;4.69;65.66;99394.47;10308623;28;20050;-59
2024/03/01 00:43:21;;;;;;;33.47;12.68;;;;;;;4.62;65.83;99386.31;10301438;28;20039;-59
2024/03/01 00:48:23;;;;;;;31.70;13.20;;;;;;;4.58;66.29;99387.59;10297351;28;20117;-59
2024/03/01 00:53:25;;;;;;;33.83;12.35;;;;;;;4.60;65.91;99387.44;10296470;28;20046;-59
2024/03/01 00:58:26;;;;;;;40.58;14.43;;;;;;;4.61;65.73;99383.81;10301384;28;20054;-59
2024/03/01 01:03:28;;;;;;;32.03;11.57;;;;;;;4.57;66.18;99378.78;10304022;28;20054;-59
2024/03/01 01:08:29;;;;;;;32.05;11.88;;;;;;;4.51;65.82;99382.09;10299151;28;20055;-59
2024/03/01 01:13:30;;;;;;;27.42;11.18;;;;;;;4.50;66.25;99385.75;10313285;28;20068;-58
2024/03/01 01:18:32;;;;;;;29.00;10.88;;;;;;;4.46;65.92;99375.59;10334056;28;20141;-58
2024/03/01 01:23:33;;;;;;;30.70;11.27;;;;;;;4.40;65.96;99381.56;10343295;28;20057;-58
2024/03/01 01:28:35;;;;;;;31.73;10.95;;;;;;;4.35;65.95;99377.53;10340642;28;20054;-57
2024/03/01 01:33:36;;;;;;;31.48;12.40;;;;;;;4.26;66.29;99375.00;10338755;28;20062;-58
2024/03/01 01:38:38;;;;;;;29.77;11.63;;;;;;;4.23;65.77;99383.31;10342819;28;20061;-57
2024/03/01 01:43:42;;;;;;;26.50;12.13;;;;;;;4.16;66.78;99377.78;10338517;28;20051;-57
2024/03/01 01:48:45;;;;;;;35.88;12.15;;;;;;;4.01;67.05;99372.25;10335771;28;20137;-57
2024/03/01 01:53:47;;;;;;;26.55;11.18;;;;;;;4.02;66.92;99360.59;10334125;28;20505;-57
2024/03/01 01:58:50;;;;;;;29.70;10.23;;;;;;;3.95;67.35;99354.25;10335648;28;20047;-58
2024/03/01 02:03:51;;;;;;;60.42;23.20;;;;;;;4.01;66.63;99344.78;10336895;28;20049;-58
2024/03/01 02:08:53;;;;;;;49.28;20.88;;;;;;;3.87;67.11;99339.09;10333796;28;20050;-57
2024/03/01 02:13:55;;;;;;;24.75;10.63;;;;;;;3.80;67.65;99323.94;10337694;28;20046;-57
2024/03/01 02:18:57;;;;;;;25.55;11.48;;;;;;;3.83;67.10;99328.91;10340408;28;20433;-58
2024/03/01 02:23:58;;;;;;;26.60;11.13;;;;;;;3.78;67.12;99329.41;10337140;28;20046;-58
2024/03/01 02:29:01;;;;;;;30.13;10.38;;;;;;;3.86;66.89;99320.66;10333379;28;20046;-58
2024/03/01 02:34:02;;;;;;;30.83;11.25;;;;;;;3.93;66.97;99321.66;10334199;28;20064;-57
2024/03/01 02:39:16;;;;;;;31.90;11.82;;;;;;;3.90;67.27;99329.97;10339831;28;20374;-58
2024/03/01 02:44:18;;;;;;;27.20;11.43;;;;;;;3.92;66.95;99325.31;10348856;28;20069;-58
2024/03/01 02:49:19;;;;;;;33.05;10.57;;;;;;;3.90;66.80;99324.66;10344974;28;20046;-58
2024/03/01 02:54:21;;;;;;;30.05;11.93;;;;;;;3.88;66.84;99329.28;10343510;28;20062;-58
2024/03/01 02:59:22;;;;;;;36.10;11.32;;;;;;;3.86;67.05;99316.16;10341288;28;20070;-58
2024/03/01 03:04:23;;;;;;;21.98;9.65;;;;;;;3.77;67.16;99323.25;10346945;28;20139;-58
2024/03/01 03:09:25;;;;;;;26.23;9.80;;;;;;;3.63;67.55;99315.84;10344813;28;20584;-58
2024/03/01 03:14:26;;;;;;;25.08;9.88;;;;;;;3.67;67.51;99321.69;10344802;28;20058;-58
2024/03/01 03:19:29;;;;;;;28.98;10.52;;;;;;;3.65;67.80;99343.09;10343755;28;20112;-58
2024/03/01 03:24:30;;;;;;;30.30;10.52;;;;;;;3.67;67.48;99342.94;10346164;28;20077;-58
2024/03/01 03:29:33;;;;;;;30.40;10.73;;;;;;;3.63;67.23;99337.09;10341276;28;20077;-58
2024/03/01 03:34:34;;;;;;;31.38;11.75;;;;;;;3.54;67.55;99330.09;10340063;28;20061;-59
2024/03/01 03:39:36;;;;;;;27.23;10.57;;;;;;;3.55;67.53;99339.72;10343030;28;20077;-59
2024/03/01 03:44:37;;;;;;;27.85;10.25;;;;;;;3.56;66.78;99346.72;10343936;28;20038;-59
2024/03/01 03:49:39;;;;;;;28.23;9.93;;;;;;;3.55;67.26;99342.38;10340460;28;20057;-59
2024/03/01 03:54:40;;;;;;;31.92;12.15;;;;;;;3.53;67.14;99334.56;10347606;28;20061;-59
2024/03/01 03:59:41;;;;;;;28.27;10.35;;;;;;;3.52;67.06;99335.56;10342435;28;20056;-59
2024/03/01 04:04:43;;;;;;;29.55;9.93;;;;;;;3.49;67.28;99335.03;10343767;28;20489;-59
2024/03/01 04:09:44;;;;;;;24.80;10.40;;;;;;;3.49;67.35;99335.03;10337563;28;20050;-59
2024/03/01 04:14:46;;;;;;;26.77;8.73;;;;;;;3.47;67.31;99350.28;10310546;28;20057;-59
2024/03/01 04:19:47;;;;;;;24.65;8.73;;;;;;;3.42;67.49;99353.41;10308203;28;20405;-59
2024/03/01 04:24:49;;;;;;;23.63;10.23;;;;;;;3.37;67.36;99363.66;10308065;28;20050;-60
2024/03/01 04:29:51;;;;;;;30.23;12.13;;;;;;;3.33;67.48;99355.16;10304408;28;20065;-59
2024/03/01 04:34:54;;;;;;;25.33;10.13;;;;;;;3.34;67.50;99361.34;10303719;28;20054;-59
2024/03/01 04:39:55;;;;;;;26.15;9.20;;;;;;;3.33;67.34;99363.13;10310829;28;20125;-59
2024/03/01 04:44:57;;;;;;;26.63;9.82;;;;;;;3.30;67.44;99360.81;10306290;28;20047;-58
2024/03/01 04:49:58;;;;;;;24.58;9.70;;;;;;;3.30;67.51;99357.31;10300704;28;20057;-58
2024/03/01 04:55:00;;;;;;;25.90;10.35;;;;;;;3.21;67.53;99360.88;10304660;28;20062;-58
2024/03/01 05:00:03;;;;;;;31.52;10.68;;;;;;;3.22;67.45;99376.66;10305588;28;20133;-58
2024/03/01 05:05:05;;;;;;;28.83;10.07;;;;;;;3.24;67.83;99380.00;10305970;28;20057;-58
2024/03/01 05:10:11;;;;;;;25.45;8.93;;;;;;;3.27;67.34;99371.72;10304299;28;20469;-58
2024/03/01 05:15:15;;;;;;;28.13;11.45;;;;;;;3.41;67.59;99373.00;10339318;28;20042;-58
2024/03/01 05:20:17;;;;;;;31.45;11.32;;;;;;;3.63;67.63;99368.16;10338063;28;20080;-58
2024/03/01 05:25:19;;;;;;;27.27;10.13;;;;;;;3.81;67.68;99361.00;10337691;28;20056;-58
2024/03/01 05:30:23;;;;;;;28.45;9.00;;;;;;;3.91;67.50;99382.13;10339435;28;20164;-58
2024/03/01 05:35:43;;;;;;;26.25;10.98;;;;;;;4.19;67.26;99385.47;10338251;28;20450;-58
2024/03/01 05:40:46;;;;;;;35.20;11.05;;;;;;;4.40;66.85;99386.88;10338610;28;20072;-59
2024/03/01 05:45:56;;;;;;;;;;;;;;;4.57;66.81;99377.97;10336324;28;20149;-58
2024/03/01 05:50:58;;;;;;;24.80;9.15;;;;;;;4.65;67.13;99377.97;10334536;28;19964;-59
2024/03/01 05:56:00;;;;;;;29.15;11.02;;;;;;;4.79;67.21;99384.50;10336106;28;20121;-59
2024/03/01 06:01:04;;;;;;;25.25;9.88;;;;;;;4.98;66.64;99383.38;10338017;28;20072;-59
2024/03/01 06:06:07;;;;;;;24.27;9.82;;;;;;;5.09;67.19;99392.88;10335265;28;20045;-60
2024/03/01 06:11:09;;;;;;;29.40;11.32;;;;;;;5.31;66.82;99386.94;10332495;28;20083;-65
2024/03/01 06:16:10;;;;;;;30.23;10.57;;;;;;;5.40;66.53;99379.75;10300835;28;20054;-64
2024/03/01 06:21:20;;;;;;;26.83;10.95;;;;;;;5.19;67.43;99393.56;10304416;28;20047;-65
2024/03/01 06:26:22;;;;;;;26.70;10.63;;;;;;;5.22;68.04;99392.41;10298686;28;20051;-64
2024/03/01 06:31:23;;;;;;;33.33;12.00;;;;;;;5.38;67.09;99404.91;10300416;28;20098;-65
2024/03/01 06:36:26;;;;;;;35.25;12.63;;;;;;;5.66;67.14;99413.41;10298926;28;20062;-65
2024/03/01 06:41:27;;;;;;;30.92;12.38;;;;;;;5.83;67.16;99424.91;10300943;28;20506;-65
2024/03/01 06:46:29;;;;;;;32.53;12.40;;;;;;;6.01;66.00;99414.91;10297739;28;20065;-64
2024/03/01 06:51:31;;;;;;;30.75;11.95;;;;;;;6.11;66.31;99420.88;10299203;28;20054;-65
2024/03/01 06:56:32;;;;;;;32.72;11.88;;;;;;;6.27;66.64;99421.84;10302539;28;20133;-64
2024/03/01 07:01:34;;;;;;;28.92;12.93;;;;;;;6.40;65.91;99426.63;10303078;28;20061;-64
2024/03/01 07:06:36;;;;;;;25.80;11.48;;;;;;;6.54;66.58;99420.59;10291192;28;20128;-63
2024/03/01 07:11:38;;;;;;;28.15;11.80;;;;;;;6.66;66.01;99415.69;10298899;28;20054;-63
2024/03/01 07:16:39;;;;;;;36.15;13.13;;;;;;;6.76;66.16;99421.66;10294599;28;20124;-63
2024/03/01 07:21:41;;;;;;;36.95;13.48;;;;;;;6.88;65.74;99414.91;10295798;28;20065;-63
2024/03/01 07:26:42;;;;;;;25.73;11.32;;;;;;;7.02;66.34;99418.66;10304054;28;20543;-63
2024/03/01 07:31:44;;;;;;;30.00;13.05;;;;;;;7.12;65.89;99435.31;10300772;28;20062;-63
2024/03/01 07:36:45;;;;;;;32.08;12.57;;;;;;;7.12;65.89;99440.66;10304030;28;20055;-63
2024/03/01 07:41:47;;;;;;;33.78;13.13;;;;;;;7.21;66.05;99436.09;10287892;28;20053;-63
2024/03/01 07:46:55;;;;;;;39.08;16.50;;;;;;;7.19;66.74;99445.28;10301905;28;20051;-63
2024/03/01 07:51:57;;;;;;;39.53;15.38;;;;;;;7.43;66.08;99431.78;10303778;28;20128;-63
2024/03/01 07:56:59;;;;;;;36.65;15.32;;;;;;;7.57;66.29;99427.47;10299437;28;20505;-63
2024/03/01 08:02:00;;;;;;;35.95;15.50;;;;;;;7.72;66.00;99416.81;10302938;28;20524;-63
2024/03/01 08:07:02;;;;;;;32.78;13.80;;;;;;;7.90;66.20;99416.50;10300293;28;20050;-63
2024/03/01 08:12:05;;;;;;;33.75;15.00;;;;;;;8.06;65.89;99429.72;10304133;28;20136;-63
2024/03/01 08:17:08;;;;;;;36.40;14.45;;;;;;;8.21;65.56;99413.66;10299935;28;20057;-63
2024/03/01 08:22:14;;;;;;;42.28;15.27;;;;;;;8.48;65.44;99411.41;10297138;28;20053;-63
2024/03/01 08:27:24;;;;;;;33.23;13.37;;;;;;;8.75;65.20;99404.53;10284915;28;20438;-63
2024/03/01 08:32:42;;;;;;;41.20;15.88;;;;;;;8.95;65.08;99406.63;10299177;28;20129;-64
2024/03/01 08:37:43;;;;;;;33.80;14.18;;;;;;;9.09;64.76;99400.38;10298013;28;20445;-63
2024/03/01 08:42:45;;;;;;;34.13;14.32;;;;;;;8.97;65.06;99393.88;10300165;28;20052;-63
2024/03/01 08:47:59;;;;;;;38.33;16.17;;;;;;;8.90;65.39;99402.63;10300965;28;20070;-63
2024/03/01 08:53:00;;;;;;;36.40;15.73;;;;;;;9.03;64.87;99385.06;10299114;28;20066;-64
2024/03/01 08:58:02;;;;;;;36.08;16.55;;;;;;;8.92;65.61;99389.06;10296719;28;20518;-63
2024/03/01 09:03:10;;;;;;;36.75;16.95;;;;;;;9.00;65.35;99372.03;10301534;28;20049;-63
2024/03/01 09:08:22;;;;;;;37.20;17.23;;;;;;;9.13;64.79;99381.03;10302537;28;20058;-63
2024/03/01 09:13:25;;;;;;;36.60;17.08;;;;;;;9.33;64.98;99377.72;10299502;28;20077;-63
2024/03/01 09:18:47;;;;;;;39.08;16.92;;;;;;;9.53;64.52;99361.81;10300491;28;20066;-63
2024/03/01 09:23:48;;;;;;;35.60;17.13;;;;;;;9.95;63.93;99367.28;10299732;28;20121;-63
2024/03/01 09:28:50;;;;;;;41.03;17.20;;;;;;;10.38;63.67;99364.47;10296574;28;20060;-64
2024/03/01 09:33:52;;;;;;;37.90;16.88;;;;;;;10.70;62.92;99349.50;10301560;28;20054;-65
2024/03/01 09:39:04;;;;;;;37.28;17.00;;;;;;;10.93;62.30;99341.09;10299233;28;20046;-64
2024/03/01 09:44:22;;;;;;;39.30;18.15;;;;;;;11.30;61.93;99345.09;10282159;28;20047;-63
2024/03/01 09:50:13;;;;;;;31.77;14.88;;;;;;;11.35;61.94;99343.66;10281130;28;20524;-62
2024/03/01 09:55:46;;;;;;;33.58;15.63;;;;;;;11.50;61.62;99349.66;10141998;29;20495;-62
2024/03/01 10:01:11;;;;;;;30.17;15.35;;;;;;;11.58;61.80;99346.75;10239017;28;20401;-62
2024/03/01 10:06:27;;;;;;;31.55;14.65;;;;;;;11.78;60.94;99364.78;10295307;28;20065;-63
2024/03/01 10:11:37;;;;;;;28.33;12.75;;;;;;;12.08;60.66;99368.72;10296591;28;20056;-62
2024/03/01 10:17:03;;;;;;;28.00;13.00;;;;;;;12.31;60.49;99370.09;10294272;28;20078;-63
2024/03/01 10:22:20;;;;;;;26.15;12.98;;;;;;;11.86;61.09;99376.16;10275848;28;20051;-63
2024/03/01 10:27:38;;;;;;;23.02;11.70;;;;;;;11.73;60.91;99380.72;10294188;28;20042;-64
2024/03/01 10:33:03;;;;;;;22.80;11.68;;;;;;;11.46;61.16;99389.59;10291868;28;20046;-64
2024/03/01 10:38:31;;;;;;;22.38;11.60;;;;;;;11.40;61.25;99386.91;10308783;28;20058;-64
2024/03/01 10:43:44;;;;;;;27.00;12.10;;;;;;;11.44;60.91;99386.28;10306655;28;20080;-66
2024/03/01 10:49:02;;;;;;;24.85;11.55;;;;;;;11.39;61.06;99393.31;10299984;28;20078;-64
2024/03/01 10:54:07;;;;;;;25.38;13.15;;;;;;;11.34;61.14;99401.19;10297822;28;20563;-63
2024/03/01 10:59:18;;;;;;;24.00;12.20;;;;;;;11.39;61.05;99404.09;10307580;28;20121;-64
2024/03/01 11:04:28;;;;;;;22.38;12.30;;;;;;;11.22;61.85;99388.34;10305308;28;20329;-63
2024/03/01 11:09:54;;;;;;;27.05;12.98;;;;;;;11.30;61.31;99388.13;10307676;28;20138;-64
2024/03/01 11:15:07;;;;;;;25.05;11.32;;;;;;;11.25;61.51;99401.38;10309623;28;20046;-64
2024/03/01 11:20:16;;;;;;;24.05;11.27;;;;;;;11.36;61.56;99407.19;10306374;28;20135;-64
2024/03/01 11:25:21;;;;;;;21.33;11.10;;;;;;;11.48;61.24;99401.00;10306564;28;20049;-64
2024/03/01 11:30:27;;;;;;;27.27;11.75;;;;;;;11.58;60.82;99402.47;10312834;28;20385;-63
2024/03/01 11:35:33;;;;;;;22.35;10.70;;;;;;;11.46;61.22;99407.63;10308470;28;20042;-64
2024/03/01 11:41:09;;;;;;;24.27;10.88;;;;;;;11.53;61.56;99405.75;10311269;28;20086;-64
2024/03/01 11:46:16;;;;;;;20.20;10.73;;;;;;;11.71;60.99;99405.16;10284550;28;20070;-64
2024/03/01 11:51:37;;;;;;;;;;;;;;;11.74;60.93;99403.91;10307552;28;20062;-65
2024/03/01 11:57:04;;;;;;;16.48;9.48;;;;;;;11.77;60.78;99408.88;10324072;28;19988;-62
2024/03/01 12:02:33;;;;;;;19.33;9.30;;;;;;;11.60;61.26;99403.09;10306371;28;20141;-62
2024/03/01 12:08:06;;;;;;;16.63;8.52;;;;;;;11.64;61.05;99413.22;10301864;28;20129;-61
2024/03/01 12:13:11;;;;;;;14.88;7.20;;;;;;;11.84;60.75;99402.44;10300159;28;20445;-62
2024/03/01 12:18:29;;;;;;;12.63;6.95;;;;;;;11.93;60.65;99402.28;10303556;28;20060;-61
2024/03/01 12:23:51;;;;;;;13.63;7.85;;;;;;;11.97;60.39;99401.66;10302733;28;20046;-60
2024/03/01 12:29:18;;;;;;;13.60;8.30;;;;;;;11.62;60.75;99409.91;10282965;28;20054;-60
2024/03/01 12:34:37;;;;;;;15.90;7.55;;;;;;;11.47;61.39;99415.50;10302450;28;20149;-61
2024/03/01 12:39:44;;;;;;;16.25;7.30;;;;;;;11.95;59.87;99401.03;10297586;28;20055;-60
2024/03/01 12:44:56;;;;;;;;;;;;;;;12.30;59.43;99396.22;10301218;28;20050;-60
2024/03/01 12:50:19;;;;;;;9.48;5.07;;;;;;;12.61;58.44;99393.84;10298737;28;19922;-60
2024/03/01 12:55:31;;;;;;;9.85;5.13;;;;;;;13.20;57.12;99392.72;10299925;28;20230;-65
2024/03/01 13:00:52;;;;;;;7.85;3.97;;;;;;;15.91;51.61;99363.03;10300452;28;20054;-67
2024/03/01 13:05:54;;;;;;;7.00;3.55;;;;;;;17.09;48.65;99358.22;10304770;28;20046;-66
2024/03/01 13:10:59;;;;;;;4.00;2.13;;;;;;;15.20;52.22;99362.88;10294661;28;20062;-67
2024/03/01 13:16:18;;;;;;;3.92;1.90;;;;;;;15.47;51.60;99353.31;10298020;28;20876;-67
2024/03/01 13:21:29;;;;;;;3.40;2.00;;;;;;;18.12;46.12;99332.72;10299645;28;20050;-68
2024/03/01 13:26:37;;;;;;;2.03;1.20;;;;;;;17.70;46.56;99346.78;10296069;28;20049;-64
2024/03/01 13:31:59;;;;;;;2.00;0.88;;;;;;;15.76;49.37;99353.50;10295724;28;20561;-63
2024/03/01 13:37:09;;;;;;;1.08;0.68;;;;;;;15.35;50.11;99343.53;10298194;28;20047;-67
2024/03/01 13:42:35;;;;;;;1.10;0.82;;;;;;;14.59;50.87;99345.81;10300934;28;20465;-59
2024/03/01 13:47:46;;;;;;;0.98;0.60;;;;;;;15.30;49.51;99333.38;10298075;28;20133;-67
2024/03/01 13:52:48;;;;;;;0.90;0.50;;;;;;;18.38;43.65;99306.69;10302722;28;20052;-64
2024/03/01 13:57:50;;;;;;;0.70;0.50;;;;;;;17.57;44.89;99315.31;10297080;28;20062;-64
2024/03/01 14:02:52;;;;;;;1.33;0.60;;;;;;;16.68;45.86;99318.59;10297884;28;20049;-59
2024/03/01 14:07:57;;;;;;;0.52;0.40;;;;;;;17.92;43.70;99315.06;10302401;28;20058;-59
2024/03/01 14:12:59;;;;;;;0.90;0.52;;;;;;;16.83;45.87;99319.75;10311602;28;20133;-60
2024/03/01 14:18:01;;;;;;;0.70;0.50;;;;;;;16.18;46.90;99325.44;10312314;28;20491;-61
2024/03/01 14:23:03;;;;;;;1.33;0.40;;;;;;;15.55;47.70;99326.94;10311265;28;20121;-60
2024/03/01 14:28:06;;;;;;;0.73;0.40;;;;;;;15.27;47.68;99336.56;10311696;28;20046;-61
2024/03/01 14:33:09;;;;;;;0.57;0.47;;;;;;;15.01;48.09;99329.66;10304562;28;20145;-57
2024/03/01 14:38:15;;;;;;;0.60;0.32;;;;;;;14.67;48.54;99321.16;10314819;28;20060;-60
2024/03/01 14:43:16;;;;;;;0.40;0.30;;;;;;;15.06;47.37;99313.53;10320514;28;20133;-57
2024/03/01 14:48:32;;;;;;;0.45;0.25;;;;;;;15.01;47.36;99311.53;10310277;28;20074;-60
2024/03/01 14:53:47;;;;;;;0.75;0.20;;;;;;;15.10;47.15;99312.00;10316546;28;20054;-60
2024/03/01 14:58:49;;;;;;;0.60;0.30;;;;;;;14.64;48.08;99310.81;10315163;28;20065;-62
2024/03/01 15:03:51;;;;;;;0.50;0.30;;;;;;;14.65;48.13;99304.31;10321495;28;20050;-60
2024/03/01 15:08:52;;;;;;;0.75;0.30;;;;;;;14.55;48.19;99312.94;10316922;28;20114;-60
2024/03/01 15:13:54;;;;;;;0.80;0.43;;;;;;;14.44;47.97;99306.44;10345719;28;20054;-64
2024/03/01 15:18:57;;;;;;;0.98;0.40;;;;;;;14.13;48.49;99302.03;10343897;28;20054;-68
2024/03/01 15:23:58;;;;;;;1.15;0.63;;;;;;;14.06;48.61;99304.00;10344567;28;20077;-69
2024/03/01 15:29:04;;;;;;;0.68;0.40;;;;;;;13.96;49.01;99300.94;10344984;28;20053;-69
2024/03/01 15:34:06;;;;;;;1.77;0.50;;;;;;;13.86;48.97;99298.75;10342037;28;20456;-67
2024/03/01 15:39:10;;;;;;;1.45;0.47;;;;;;;13.79;49.25;99303.44;10344999;28;20046;-67
2024/03/01 15:44:11;;;;;;;3.22;0.50;;;;;;;13.62;49.44;99306.69;10345856;28;20072;-65
2024/03/01 15:49:13;;;;;;;4.00;0.98;;;;;;;13.46;49.60;99299.97;10344792;28;20046;-66
2024/03/01 15:54:14;;;;;;;0.77;0.50;;;;;;;13.22;50.07;99298.88;10342439;28;20053;-64
2024/03/01 15:59:16;;;;;;;1.10;0.40;;;;;;;13.08;50.18;99289.25;10342387;28;20061;-64
2024/03/01 16:04:19;;;;;;;1.83;0.50;;;;;;;13.07;50.23;99295.66;10342616;28;20041;-63
2024/03/01 16:09:21;;;;;;;1.08;0.40;;;;;;;13.09;50.14;99297.13;10341545;28;20049;-66
2024/03/01 16:14:22;;;;;;;3.30;0.88;;;;;;;12.95;50.63;99300.94;10342397;28;20054;-64
2024/03/01 16:19:24;;;;;;;1.52;0.50;;;;;;;12.90;50.53;99300.78;10339604;28;20726;-65
2024/03/01 16:24:25;;;;;;;2.15;0.57;;;;;;;13.08;50.31;99291.94;10340002;28;20052;-61
2024/03/01 16:29:32;;;;;;;1.85;0.50;;;;;;;12.94;50.52;99293.09;10340596;28;20072;-61
2024/03/01 16:34:33;;;;;;;2.58;1.95;;;;;;;12.72;51.27;99296.13;10342645;28;20138;-61
2024/03/01 16:39:38;;;;;;;0.82;0.55;;;;;;;12.46;51.35;99300.59;10339809;28;20155;-58
2024/03/01 16:44:43;;;;;;;1.30;0.50;;;;;;;12.37;51.41;99306.44;10343911;28;20054;-60
2024/03/01 16:49:45;;;;;;;1.73;0.60;;;;;;;12.12;51.54;99299.06;10332545;28;20062;-60
2024/03/01 16:54:47;;;;;;;3.70;0.88;;;;;;;11.94;51.83;99301.59;10339523;28;20057;-60
2024/03/01 16:59:49;;;;;;;2.50;1.20;;;;;;;11.79;52.07;99307.19;10344414;28;20064;-60
2024/03/01 17:04:50;;;;;;;1.40;0.70;;;;;;;11.63;52.36;99311.97;10337054;28;20054;-61
2024/03/01 17:09:52;;;;;;;4.25;0.60;;;;;;;11.49;52.59;99311.16;10343707;28;20129;-61
2024/03/01 17:14:55;;;;;;;2.50;0.55;;;;;;;11.31;53.17;99302.88;10298291;28;20517;-60
2024/03/01 17:19:56;;;;;;;3.58;0.60;;;;;;;11.13;53.29;99308.84;10298064;28;20054;-60
2024/03/01 17:24:57;;;;;;;1.67;0.82;;;;;;;10.93;54.11;99306.16;10298776;28;20142;-57
2024/03/01 17:29:59;;;;;;;1.38;0.50;;;;;;;10.75;54.30;99313.97;10295852;28;20128;-57
2024/03/01 17:35:00;;;;;;;1.40;0.40;;;;;;;10.48;54.91;99312.00;10296098;28;20398;-58
2024/03/01 17:40:02;;;;;;;1.83;0.70;;;;;;;10.29;55.21;99315.44;10299106;28;20081;-58
2024/03/01 17:45:04;;;;;;;3.45;1.10;;;;;;;10.10;55.88;99306.25;10297516;28;20089;-59
2024/03/01 17:50:07;;;;;;;3.92;1.70;;;;;;;9.90;56.23;99309.63;10296447;28;20058;-58
2024/03/01 17:55:09;;;;;;;4.97;1.95;;;;;;;9.71;56.41;99313.03;10295924;28;20446;-59
2024/03/01 18:00:11;;;;;;;4.78;2.30;;;;;;;9.55;56.30;99310.66;10295051;28;20058;-58
2024/03/01 18:05:13;;;;;;;4.32;2.17;;;;;;;9.38;56.92;99315.44;10294628;28;20149;-60
2024/03/01 18:10:19;;;;;;;4.13;2.30;;;;;;;9.24;57.29;99307.31;10298321;28;20070;-58
2024/03/01 18:15:20;;;;;;;11.18;3.05;;;;;;;9.07;57.70;99322.81;10298037;28;20050;-59
2024/03/01 18:20:22;;;;;;;11.52;5.03;;;;;;;8.94;57.85;99317.34;10296512;28;20589;-58
2024/03/01 18:25:24;;;;;;;7.25;3.15;;;;;;;8.81;58.19;99314.53;10293305;28;20057;-58
2024/03/01 18:30:25;;;;;;;8.32;4.05;;;;;;;8.71;58.40;99317.53;10294167;28;20054;-58
2024/03/01 18:35:27;;;;;;;6.22;3.63;;;;;;;8.59;58.81;99325.22;10295337;28;20042;-59
2024/03/01 18:40:29;;;;;;;6.00;2.83;;;;;;;8.49;58.87;99330.88;10295892;28;20046;-58
2024/03/01 18:45:30;;;;;;;6.28;3.50;;;;;;;8.36;59.39;99329.84;10300356;28;20050;-57
2024/03/01 18:50:32;;;;;;;9.32;5.05;;;;;;;8.25;59.50;99317.75;10296078;28;20050;-58
2024/03/01 18:55:34;;;;;;;11.80;5.38;;;;;;;8.15;59.84;99312.69;10296586;28;20051;-59
2024/03/01 19:00:35;;;;;;;13.48;5.35;;;;;;;8.06;60.09;99309.28;10289125;28;20141;-58
2024/03/01 19:05:43;;;;;;;15.55;6.05;;;;;;;7.96;60.35;99300.72;10293928;28;20086;-58
2024/03/01 19:10:45;;;;;;;20.08;8.90;;;;;;;7.82;60.15;99304.19;10258342;28;1016033;-58
2024/03/01 19:15:46;;;;;;;16.48;8.18;;;;;;;7.72;60.54;99299.97;10279588;28;21036;-60
2024/03/01 19:20:48;;;;;;;13.90;6.35;;;;;;;7.61;61.00;99303.09;10298047;28;20050;-58
2024/03/01 19:25:49;;;;;;;9.45;4.10;;;;;;;7.51;61.28;99297.19;10301493;28;20054;-58
2024/03/01 19:30:51;;;;;;;7.93;3.28;;;;;;;7.43;61.50;99298.09;10304749;28;20089;-58
2024/03/01 19:35:53;;;;;;;6.43;3.70;;;;;;;7.33;61.80;99301.00;10306731;28;20058;-58
2024/03/01 19:40:55;;;;;;;6.22;3.05;;;;;;;7.31;61.35;99294.19;10304418;28;20109;-59
2024/03/01 19:45:56;;;;;;;5.63;3.05;;;;;;;7.26;61.79;99291.22;10302897;28;20105;-58
2024/03/01 19:50:58;;;;;;;9.15;3.38;;;;;;;7.27;61.77;99307.09;10301140;28;20047;-57
2024/03/01 19:55:59;;;;;;;10.55;4.22;;;;;;;7.25;61.54;99305.63;10300162;28;20053;-58
2024/03/01 20:01:01;;;;;;;7.97;3.70;;;;;;;7.23;62.37;99297.78;10302221;28;20050;-57
2024/03/01 20:06:03;;;;;;;7.72;5.10;;;;;;;7.22;61.78;99297.94;10304043;28;20050;-57
2024/03/01 20:11:04;;;;;;;28.10;12.10;;;;;;;7.19;62.43;99299.16;10303122;28;20124;-57
2024/03/01 20:16:06;;;;;;;28.70;11.75;;;;;;;7.15;62.22;99296.00;10304241;28;20144;-57
2024/03/01 20:21:07;;;;;;;20.23;8.30;;;;;;;7.12;62.91;99299.00;10298197;28;20060;-57
2024/03/01 20:26:08;;;;;;;13.98;5.85;;;;;;;7.11;62.86;99288.53;10306283;28;20054;-57
2024/03/01 20:31:10;;;;;;;11.07;6.07;;;;;;;7.06;62.48;99291.72;10300039;28;20073;-57
2024/03/01 20:36:12;;;;;;;9.30;4.53;;;;;;;7.02;63.13;99292.25;10305033;28;20134;-57
2024/03/01 20:41:13;;;;;;;12.13;5.72;;;;;;;6.93;63.11;99286.13;10299411;28;20043;-57
2024/03/01 20:46:15;;;;;;;11.00;4.35;;;;;;;6.87;63.47;99277.03;10294938;28;20129;-57
2024/03/01 20:51:16;;;;;;;9.60;4.28;;;;;;;6.87;63.55;99271.69;10300300;28;20146;-57
2024/03/01 20:56:18;;;;;;;15.35;5.75;;;;;;;6.81;63.28;99268.88;10300780;28;20046;-57
2024/03/01 21:01:19;;;;;;;11.07;5.53;;;;;;;6.77;63.70;99276.41;10302078;28;20382;-57
2024/03/01 21:06:21;;;;;;;11.07;5.22;;;;;;;6.71;63.74;99271.78;10299355;28;20128;-56
2024/03/01 21:11:24;;;;;;;12.27;5.65;;;;;;;6.67;63.89;99270.47;10297448;28;20054;-57
2024/03/01 21:16:25;;;;;;;16.45;7.30;;;;;;;6.65;63.56;99264.47;10295765;28;20543;-57
2024/03/01 21:21:27;;;;;;;18.02;8.52;;;;;;;6.64;63.92;99250.31;10297698;28;20054;-58
2024/03/01 21:26:28;;;;;;;16.02;6.65;;;;;;;6.65;64.04;99251.13;10298554;28;20134;-57
2024/03/01 21:31:30;;;;;;;20.85;8.43;;;;;;;6.61;64.14;99256.00;10297100;28;20065;-57
2024/03/01 21:36:31;;;;;;;23.55;10.40;;;;;;;6.57;64.53;99256.53;10297305;28;20053;-58
2024/03/01 21:41:33;;;;;;;19.02;8.77;;;;;;;6.51;64.07;99258.06;10298724;28;20057;-57
2024/03/01 21:46:34;;;;;;;15.95;8.70;;;;;;;6.35;65.16;99248.31;10298447;28;20086;-58
2024/03/01 21:51:36;;;;;;;10.82;6.47;;;;;;;6.40;65.11;99245.97;10298791;28;20047;-57
2024/03/01 21:56:37;;;;;;;14.15;6.32;;;;;;;6.39;64.36;99240.81;10297645;28;20061;-57
2024/03/01 22:01:39;;;;;;;10.88;5.80;;;;;;;6.46;64.68;99234.59;10298853;28;20070;-57
2024/03/01 22:06:41;;;;;;;12.63;6.35;;;;;;;6.44;65.59;99233.94;10296099;28;20125;-57
2024/03/01 22:11:47;;;;;;;9.40;4.97;;;;;;;6.47;65.15;99243.41;10274782;28;20047;-57
2024/03/01 22:16:48;;;;;;;12.60;5.97;;;;;;;6.51;64.98;99229.53;10294245;28;20555;-60
2024/03/01 22:21:51;;;;;;;19.15;6.72;;;;;;;6.54;65.71;99226.50;10295571;28;20063;-58
2024/03/01 22:26:52;;;;;;;12.82;6.45;;;;;;;6.63;64.79;99218.44;10296887;28;20108;-58
2024/03/01 22:31:54;;;;;;;14.55;7.15;;;;;;;6.62;65.13;99214.13;10293972;28;20046;-58
2024/03/01 22:36:56;;;;;;;15.30;8.60;;;;;;;6.62;64.98;99203.44;10293356;28;20061;-59
2024/03/01 22:41:58;;;;;;;13.88;6.60;;;;;;;6.65;65.50;99203.06;10297711;28;20140;-59
2024/03/01 22:46:59;;;;;;;11.57;5.72;;;;;;;6.48;66.32;99200.53;10294053;28;20069;-58
2024/03/01 22:52:01;;;;;;;12.07;6.60;;;;;;;6.54;66.05;99201.66;10292983;28;20054;-58
2024/03/01 22:57:03;;;;;;;12.32;6.03;;;;;;;6.64;65.70;99212.94;10300397;28;20046;-58
2024/03/01 23:02:05;;;;;;;12.77;7.28;;;;;;;6.70;66.21;99206.03;10305487;28;20042;-59
2024/03/01 23:07:08;;;;;;;12.55;6.40;;;;;;;6.74;65.75;99205.50;10285491;28;20050;-58
2024/03/01 23:12:11;;;;;;;11.02;6.18;;;;;;;6.70;65.56;99211.38;10303462;28;20574;-58
2024/03/01 23:17:13;;;;;;;11.48;6.63;;;;;;;6.55;66.68;99209.47;10304130;28;20137;-59
2024/03/01 23:22:16;;;;;;;11.57;6.13;;;;;;;6.71;65.91;99205.88;10301909;28;20149;-59
2024/03/01 23:27:18;;;;;;;14.00;6.68;;;;;;;6.77;65.96;99214.16;10302496;28;20194;-57
2024/03/01 23:32:20;;;;;;;13.35;6.63;;;;;;;6.76;66.17;99216.00;10270448;28;20051;-58